createdAt,value
2022-11-12T00:05:23.384Z,6.65
2022-11-12T00:11:12.583Z,6.64
2022-11-12T00:17:00.161Z,6.57
2022-11-12T00:22:48.412Z,6.54
2022-11-12T00:28:38.340Z,6.50
2022-11-12T00:34:26.274Z,6.57
2022-11-12T00:40:14.253Z,6.65
2022-11-12T00:46:02.565Z,6.69
2022-11-12T00:51:50.695Z,6.69
2022-11-12T00:57:38.464Z,6.66
2022-11-12T01:03:28.887Z,6.68
2022-11-12T01:09:16.150Z,6.72
2022-11-12T01:15:04.781Z,6.69
2022-11-12T01:20:53.556Z,6.66
2022-11-12T01:26:41.495Z,6.60
2022-11-12T01:32:29.140Z,6.62
2022-11-12T01:38:18.459Z,6.58
2022-11-12T01:44:12.375Z,6.51
2022-11-12T01:50:15.976Z,6.44
2022-11-12T01:56:06.749Z,6.34
2022-11-12T02:01:54.477Z,6.30
2022-11-12T02:07:43.097Z,6.21
2022-11-12T02:13:48.426Z,6.22
2022-11-12T02:19:38.377Z,6.27
2022-11-12T02:25:28.407Z,6.21
2022-11-12T02:31:16.348Z,6.17
2022-11-12T02:37:04.221Z,6.11
2022-11-12T02:42:53.600Z,6.13
2022-11-12T02:48:41.558Z,6.19
2022-11-12T02:54:29.246Z,6.34
2022-11-12T03:00:19.393Z,6.46
2022-11-12T03:06:08.336Z,6.59
2022-11-12T03:11:56.268Z,6.68
2022-11-12T03:17:45.550Z,6.72
2022-11-12T03:23:33.225Z,6.77
2022-11-12T03:29:21.268Z,6.76
2022-11-12T03:35:10.755Z,6.76
2022-11-12T03:40:58.290Z,6.87
2022-11-12T03:46:46.252Z,6.83
2022-11-12T03:52:35.796Z,6.79
2022-11-12T03:58:23.428Z,6.73
2022-11-12T04:04:11.706Z,6.64
2022-11-12T04:10:00.717Z,6.48
2022-11-12T04:16:08.213Z,6.59
2022-11-12T04:22:00.057Z,6.64
2022-11-12T04:27:49.560Z,6.66
2022-11-12T04:33:37.507Z,6.65
2022-11-12T04:39:25.331Z,6.65
2022-11-12T04:45:14.644Z,6.68
2022-11-12T04:51:03.843Z,6.78
2022-11-12T04:56:51.290Z,6.85
2022-11-12T05:02:40.654Z,6.94
2022-11-12T05:08:28.507Z,6.95
2022-11-12T05:14:16.502Z,7.01
2022-11-12T05:20:08.337Z,7.05
2022-11-12T05:25:56.506Z,7.12
2022-11-12T05:31:44.566Z,7.19
2022-11-12T05:37:33.529Z,7.26
2022-11-12T05:43:21.324Z,7.16
2022-11-12T05:49:09.579Z,7.12
2022-11-12T05:54:58.680Z,7.12
2022-11-12T06:00:46.414Z,7.28
2022-11-12T06:06:34.539Z,7.20
2022-11-12T06:12:24.042Z,7.23
2022-11-12T06:18:11.279Z,7.30
2022-11-12T06:24:01.121Z,7.33
2022-11-12T06:29:51.276Z,7.47
2022-11-12T06:35:42.931Z,7.69
2022-11-12T06:41:31.565Z,7.74
2022-11-12T06:47:20.483Z,7.83
2022-11-12T06:53:08.320Z,8.00
2022-11-12T06:58:56.503Z,8.40
2022-11-12T07:04:45.616Z,8.87
2022-11-12T07:10:33.297Z,9.84
2022-11-12T07:16:22.491Z,9.08
2022-11-12T07:22:11.698Z,8.95
2022-11-12T07:27:59.206Z,8.94
2022-11-12T07:33:48.879Z,9.10
2022-11-12T07:39:37.674Z,9.07
2022-11-12T07:45:25.258Z,9.14
2022-11-12T07:51:15.186Z,9.21
2022-11-12T07:57:04.977Z,9.32
2022-11-12T08:02:53.236Z,10.08
2022-11-12T08:08:41.363Z,10.01
2022-11-12T08:14:30.890Z,10.49
2022-11-12T08:20:18.463Z,10.88
2022-11-12T08:26:08.360Z,10.84
2022-11-12T08:31:57.559Z,10.89
2022-11-12T08:37:45.283Z,11.92
2022-11-12T08:43:33.387Z,12.94
2022-11-12T08:49:22.888Z,12.77
2022-11-12T08:55:10.662Z,11.87
2022-11-12T09:00:58.782Z,12.36
2022-11-12T09:06:52.665Z,12.58
2022-11-12T09:12:41.181Z,13.16
2022-11-12T09:18:28.762Z,12.85
2022-11-12T09:24:18.103Z,12.75
2022-11-12T09:30:09.419Z,12.46
2022-11-12T09:35:57.773Z,11.55
2022-11-12T09:41:46.772Z,12.38
2022-11-12T09:47:39.751Z,12.97
2022-11-12T09:53:39.070Z,13.60
2022-11-12T09:59:34.275Z,12.91
2022-11-12T10:05:30.079Z,13.25
2022-11-12T10:12:03.856Z,12.82
2022-11-12T10:18:06.248Z,13.00
2022-11-12T10:23:55.032Z,12.76
2022-11-12T10:29:50.744Z,12.60
2022-11-12T10:35:39.742Z,12.11
2022-11-12T10:41:30.957Z,12.00
2022-11-12T10:47:25.781Z,11.80
2022-11-12T10:53:14.642Z,12.00
2022-11-12T10:59:15.832Z,11.53
2022-11-12T11:05:31.468Z,11.21
2022-11-12T11:11:23.474Z,10.95
2022-11-12T11:17:18.214Z,10.57
2022-11-12T11:23:16.159Z,10.65
2022-11-12T11:29:26.527Z,11.00
2022-11-12T11:35:24.306Z,10.86
2022-11-12T11:41:31.387Z,11.13
2022-11-12T11:47:59.510Z,11.14
2022-11-12T11:53:54.061Z,10.81
2022-11-12T11:59:57.023Z,10.78
2022-11-12T12:05:51.745Z,11.10
2022-11-12T12:11:48.194Z,11.28
2022-11-12T12:17:48.916Z,11.53
2022-11-12T12:23:42.870Z,11.32
2022-11-12T12:29:38.409Z,11.33
2022-11-12T12:35:31.927Z,11.27
2022-11-12T12:41:27.831Z,11.11
2022-11-12T12:47:18.236Z,11.00
2022-11-12T12:53:07.253Z,10.93
2022-11-12T12:58:56.754Z,10.83
2022-11-12T13:04:53.555Z,10.75
2022-11-12T13:10:51.604Z,10.40
2022-11-12T13:17:01.118Z,10.44
2022-11-12T13:22:51.678Z,10.11
2022-11-12T13:29:17.673Z,9.94
2022-11-12T13:35:30.272Z,9.86
2022-11-12T13:41:42.335Z,9.71
2022-11-12T13:47:30.628Z,9.58
2022-11-12T13:53:23.697Z,9.15
2022-11-12T13:59:15.914Z,9.01
2022-11-12T14:05:06.024Z,8.80
2022-11-12T14:11:09.177Z,8.68
2022-11-12T14:17:10.055Z,8.68
2022-11-12T14:22:57.748Z,8.65
2022-11-12T14:28:46.738Z,8.60
2022-11-12T14:34:35.833Z,8.25
2022-11-12T14:40:25.013Z,8.09
2022-11-12T14:46:25.865Z,7.96
2022-11-12T14:52:19.812Z,7.81
2022-11-12T14:58:07.865Z,7.72
2022-11-12T15:04:17.409Z,7.70
2022-11-12T15:10:30.654Z,7.59
2022-11-12T15:16:22.244Z,7.44
2022-11-12T15:22:22.361Z,7.40
2022-11-12T15:28:15.852Z,7.37
2022-11-12T15:34:35.070Z,7.31
2022-11-12T15:40:24.822Z,7.28
2022-11-12T15:46:15.469Z,7.23
2022-11-12T15:52:03.321Z,7.23
2022-11-12T15:57:54.273Z,7.20
2022-11-12T16:03:41.305Z,7.22
2022-11-12T16:09:29.660Z,7.21
2022-11-12T16:15:20.926Z,7.24
2022-11-12T16:21:10.448Z,7.22
2022-11-12T16:27:01.350Z,7.29
2022-11-12T16:32:51.203Z,7.33
2022-11-12T16:38:39.593Z,7.39
2022-11-12T16:56:15.243Z,7.44
2022-11-12T17:02:02.642Z,7.44
2022-11-12T17:07:51.311Z,7.37
2022-11-12T17:13:40.411Z,7.28
2022-11-12T17:19:28.756Z,7.23
2022-11-12T17:25:16.811Z,7.12
2022-11-12T17:31:08.555Z,7.06
2022-11-12T17:36:56.478Z,7.09
2022-11-12T17:42:44.550Z,7.11
2022-11-12T17:48:34.923Z,7.13
2022-11-12T17:54:23.993Z,7.19
2022-11-12T18:00:12.978Z,7.28
2022-11-12T18:06:02.592Z,7.37
2022-11-12T18:11:54.205Z,7.42
2022-11-12T18:17:41.408Z,7.52
2022-11-12T18:23:30.771Z,7.64
2022-11-12T18:29:18.359Z,7.67
2022-11-12T18:35:07.088Z,7.75
2022-11-12T18:41:03.279Z,7.83
2022-11-12T18:46:51.257Z,7.88
2022-11-12T18:52:38.718Z,7.88
2022-11-12T18:58:33.599Z,7.89
2022-11-12T19:04:22.679Z,7.87
2022-11-12T19:10:14.920Z,7.87
2022-11-12T19:16:11.654Z,7.88
2022-11-12T19:21:59.412Z,7.89
2022-11-12T19:27:47.419Z,7.94
2022-11-12T19:33:36.972Z,7.93
2022-11-12T19:39:24.758Z,7.95
2022-11-12T19:45:12.490Z,7.99
2022-11-12T19:51:03.679Z,7.97
2022-11-12T19:56:51.482Z,7.95
2022-11-12T20:02:39.235Z,7.87
2022-11-12T20:08:28.412Z,7.81
2022-11-12T20:14:16.501Z,7.77
2022-11-12T20:20:04.744Z,7.75
2022-11-12T20:25:54.147Z,7.69
2022-11-12T20:31:43.139Z,7.65
2022-11-12T20:37:31.634Z,7.58
2022-11-12T20:43:24.064Z,7.56
2022-11-12T20:49:14.283Z,7.50
2022-11-12T20:55:01.778Z,7.44
2022-11-12T21:00:51.869Z,7.39
2022-11-12T21:06:39.811Z,7.36
2022-11-12T21:12:27.432Z,7.33
2022-11-12T21:18:17.657Z,7.34
2022-11-12T21:24:05.830Z,7.32
2022-11-12T21:29:53.323Z,7.27
2022-11-12T21:35:43.173Z,7.22
2022-11-12T21:41:31.998Z,7.22
2022-11-12T21:47:19.457Z,7.17
2022-11-12T21:53:09.223Z,7.16
2022-11-12T21:59:00.594Z,7.14
2022-11-12T22:04:48.460Z,7.17
2022-11-12T22:10:37.805Z,7.28
2022-11-12T22:16:26.583Z,7.34
2022-11-12T22:22:14.461Z,7.41
2022-11-12T22:28:04.007Z,7.46
2022-11-12T22:33:51.905Z,7.52
2022-11-12T22:39:39.366Z,7.50
2022-11-12T22:45:28.666Z,7.58
2022-11-12T22:51:18.572Z,7.60
2022-11-12T22:57:06.473Z,7.62
2022-11-12T23:02:55.764Z,7.65
2022-11-12T23:08:43.666Z,7.65
2022-11-12T23:14:31.266Z,7.63
2022-11-12T23:20:20.007Z,7.64
2022-11-12T23:26:10.152Z,7.66
2022-11-12T23:31:58.387Z,7.72
2022-11-12T23:37:47.778Z,7.76
2022-11-12T23:43:35.573Z,7.75
2022-11-12T23:49:23.409Z,7.78
2022-11-12T23:55:12.908Z,7.73
